createdAt,value
2023-04-18T00:01:38.486Z,16.42
2023-04-18T00:04:05.606Z,16.65
2023-04-18T00:06:32.625Z,15.13
2023-04-18T00:08:59.748Z,20.00
2023-04-18T00:11:26.687Z,17.98
2023-04-18T00:13:53.726Z,15.63
2023-04-18T00:16:21.024Z,16.15
2023-04-18T00:18:48.350Z,15.38
2023-04-18T00:21:16.928Z,17.10
2023-04-18T00:23:43.668Z,16.15
2023-04-18T00:26:10.334Z,16.45
2023-04-18T00:28:37.386Z,17.27
2023-04-18T00:31:04.129Z,16.38
2023-04-18T00:33:31.843Z,17.08
2023-04-18T00:35:58.499Z,16.45
2023-04-18T00:38:25.177Z,17.13
2023-04-18T00:40:51.884Z,15.85
2023-04-18T00:43:18.562Z,17.23
2023-04-18T00:45:45.395Z,16.83
2023-04-18T00:48:12.335Z,16.00
2023-04-18T00:50:40.763Z,15.45
2023-04-18T00:53:10.651Z,15.57
2023-04-18T00:55:38.536Z,13.32
2023-04-18T00:58:06.369Z,16.05
2023-04-18T01:00:33.448Z,17.05
2023-04-18T01:03:00.293Z,17.63
2023-04-18T01:05:27.277Z,13.05
2023-04-18T01:07:58.838Z,13.85
2023-04-18T01:10:25.692Z,13.63
2023-04-18T01:13:13.114Z,17.50
2023-04-18T01:15:41.721Z,12.98
2023-04-18T01:18:09.846Z,15.85
2023-04-18T01:20:38.561Z,14.35
2023-04-18T01:23:06.017Z,13.38
2023-04-18T01:25:35.174Z,15.45
2023-04-18T01:28:02.830Z,15.05
2023-04-18T01:30:29.516Z,13.13
2023-04-18T01:32:58.489Z,13.88
2023-04-18T01:35:27.092Z,13.80
2023-04-18T01:37:56.608Z,15.25
2023-04-18T01:40:23.900Z,16.23
2023-04-18T01:42:51.165Z,13.50
2023-04-18T01:45:19.487Z,15.60
2023-04-18T01:47:46.800Z,14.23
2023-04-18T01:50:13.648Z,19.13
2023-04-18T01:52:42.648Z,16.90
2023-04-18T01:55:09.763Z,14.90
2023-04-18T01:57:36.916Z,18.35
2023-04-18T02:00:07.986Z,14.68
2023-04-18T02:02:43.946Z,16.40
2023-04-18T02:05:10.912Z,15.23
2023-04-18T02:07:39.282Z,15.85
2023-04-18T02:10:06.678Z,18.35
2023-04-18T02:12:34.431Z,18.27
2023-04-18T02:15:01.237Z,15.48
2023-04-18T02:17:28.816Z,14.00
2023-04-18T02:19:55.549Z,16.63
2023-04-18T02:22:22.226Z,18.05
2023-04-18T02:24:48.934Z,16.90
2023-04-18T02:27:16.259Z,17.20
2023-04-18T02:29:43.049Z,16.80
2023-04-18T02:32:09.788Z,18.60
2023-04-18T02:34:37.232Z,18.33
2023-04-18T02:37:04.655Z,17.13
2023-04-18T02:39:32.308Z,16.40
2023-04-18T02:41:59.286Z,16.70
2023-04-18T02:44:26.028Z,23.40
2023-04-18T02:46:52.816Z,16.90
2023-04-18T02:49:19.689Z,17.40
2023-04-18T02:51:47.145Z,17.95
2023-04-18T02:54:16.543Z,17.83
2023-04-18T02:56:57.682Z,17.40
2023-04-18T02:59:44.737Z,16.13
2023-04-18T03:02:31.762Z,18.70
2023-04-18T03:05:07.482Z,17.08
2023-04-18T03:07:34.447Z,16.90
2023-04-18T03:10:01.144Z,18.25
2023-04-18T03:12:33.036Z,18.13
2023-04-18T03:15:00.448Z,18.55
2023-04-18T03:17:28.278Z,17.52
2023-04-18T03:19:55.144Z,16.83
2023-04-18T03:22:23.233Z,16.73
2023-04-18T03:24:57.394Z,18.08
2023-04-18T03:27:39.174Z,21.17
2023-04-18T03:30:06.658Z,17.75
2023-04-18T03:32:35.349Z,17.75
2023-04-18T03:35:03.078Z,18.65
2023-04-18T03:37:29.974Z,21.15
2023-04-18T03:39:57.457Z,20.40
2023-04-18T03:42:27.339Z,17.90
2023-04-18T03:44:54.007Z,15.35
2023-04-18T03:47:21.428Z,18.90
2023-04-18T03:49:54.630Z,15.77
2023-04-18T03:52:23.083Z,17.50
2023-04-18T03:54:49.758Z,16.77
2023-04-18T03:57:19.452Z,18.15
2023-04-18T03:59:47.737Z,17.33
2023-04-18T04:02:15.047Z,15.65
2023-04-18T04:04:42.372Z,16.25
2023-04-18T04:07:11.072Z,16.27
2023-04-18T04:09:37.749Z,18.98
2023-04-18T04:12:06.133Z,18.20
2023-04-18T04:14:33.700Z,15.48
2023-04-18T04:17:00.604Z,17.25
2023-04-18T04:19:29.422Z,17.40
2023-04-18T04:22:09.795Z,19.02
2023-04-18T04:24:38.695Z,15.93
2023-04-18T04:27:06.706Z,16.45
2023-04-18T04:29:36.329Z,17.73
2023-04-18T04:32:05.946Z,19.77
2023-04-18T04:34:37.065Z,18.55
2023-04-18T04:37:06.126Z,15.55
2023-04-18T04:39:39.323Z,17.20
2023-04-18T04:42:25.518Z,15.02
2023-04-18T04:45:02.679Z,13.88
2023-04-18T04:47:29.480Z,18.63
2023-04-18T04:49:56.282Z,15.55
2023-04-18T04:52:23.018Z,20.83
2023-04-18T04:54:51.657Z,19.08
2023-04-18T04:57:20.100Z,14.00
2023-04-18T04:59:49.846Z,17.80
2023-04-18T05:02:16.912Z,16.10
2023-04-18T05:04:43.826Z,13.95
2023-04-18T05:07:10.777Z,16.75
2023-04-18T05:09:37.461Z,14.95
2023-04-18T05:12:04.678Z,15.93
2023-04-18T05:14:31.410Z,16.75
2023-04-18T05:16:58.232Z,15.98
2023-04-18T05:19:24.969Z,15.20
2023-04-18T05:21:51.642Z,14.80
2023-04-18T05:24:18.509Z,19.15
2023-04-18T05:26:45.338Z,18.80
2023-04-18T05:29:12.083Z,16.50
2023-04-18T05:31:38.807Z,16.15
2023-04-18T05:34:05.573Z,18.95
2023-04-18T05:36:32.553Z,17.85
2023-04-18T05:38:59.245Z,17.50
2023-04-18T05:41:26.050Z,17.55
2023-04-18T05:44:02.426Z,15.57
2023-04-18T05:46:31.954Z,17.75
2023-04-18T05:48:58.712Z,17.38
2023-04-18T05:51:26.598Z,18.63
2023-04-18T05:53:53.299Z,16.13
2023-04-18T05:56:20.061Z,16.80
2023-04-18T05:58:47.756Z,15.90
2023-04-18T06:01:14.546Z,17.65
2023-04-18T06:03:41.801Z,17.40
2023-04-18T06:06:08.817Z,21.80
2023-04-18T06:08:35.529Z,16.00
2023-04-18T06:11:02.442Z,16.25
2023-04-18T06:13:29.130Z,16.85
2023-04-18T06:15:55.899Z,17.25
2023-04-18T06:18:22.592Z,17.20
2023-04-18T06:20:49.553Z,14.75
2023-04-18T06:23:16.883Z,17.48
2023-04-18T06:25:43.800Z,15.13
2023-04-18T06:28:10.500Z,17.80
2023-04-18T06:30:37.357Z,15.93
2023-04-18T06:33:04.190Z,16.27
2023-04-18T06:35:31.400Z,16.08
2023-04-18T06:37:58.230Z,17.60
2023-04-18T06:40:24.940Z,18.80
2023-04-18T06:42:51.762Z,16.63
2023-04-18T06:45:18.539Z,16.75
2023-04-18T06:47:45.698Z,15.45
2023-04-18T06:50:12.434Z,14.23
2023-04-18T06:52:44.394Z,15.55
2023-04-18T06:55:14.536Z,16.77
2023-04-18T06:57:41.981Z,15.63
2023-04-18T07:00:10.287Z,15.75
2023-04-18T07:02:38.305Z,14.75
2023-04-18T07:05:05.920Z,13.52
2023-04-18T07:07:33.522Z,16.35
2023-04-18T07:10:00.811Z,16.67
2023-04-18T07:12:27.760Z,19.90
2023-04-18T07:14:55.131Z,13.68
2023-04-18T07:17:21.896Z,15.32
2023-04-18T07:19:48.651Z,15.48
2023-04-18T07:22:15.848Z,17.08
2023-04-18T07:24:42.639Z,18.33
2023-04-18T07:27:09.785Z,16.30
2023-04-18T07:29:36.732Z,16.45
2023-04-18T07:32:03.544Z,14.45
2023-04-18T07:34:30.666Z,16.40
2023-04-18T07:36:57.838Z,17.98
2023-04-18T07:39:24.598Z,14.90
2023-04-18T07:41:51.800Z,14.77
2023-04-18T07:44:18.768Z,17.15
2023-04-18T07:46:45.545Z,13.98
2023-04-18T07:49:12.477Z,16.85
2023-04-18T07:51:39.451Z,16.67
2023-04-18T07:54:06.184Z,16.75
2023-04-18T07:56:32.857Z,14.95
2023-04-18T07:58:59.641Z,16.52
2023-04-18T08:01:27.448Z,14.85
2023-04-18T08:03:55.254Z,12.75
2023-04-18T08:06:22.080Z,13.10
2023-04-18T08:08:48.870Z,15.55
2023-04-18T08:11:15.553Z,16.40
2023-04-18T08:13:42.717Z,17.67
2023-04-18T08:16:09.695Z,14.32
2023-04-18T08:18:36.462Z,14.82
2023-04-18T08:21:03.269Z,12.77
2023-04-18T08:23:29.948Z,15.70
2023-04-18T08:25:57.383Z,15.43
2023-04-18T08:28:24.116Z,13.82
2023-04-18T08:30:52.170Z,13.77
2023-04-18T08:33:19.047Z,14.82
2023-04-18T08:35:46.121Z,16.23
2023-04-18T08:38:13.445Z,12.85
2023-04-18T08:40:40.109Z,13.60
2023-04-18T08:43:09.486Z,15.23
2023-04-18T08:45:37.022Z,14.75
2023-04-18T08:48:04.091Z,15.27
2023-04-18T08:50:30.910Z,12.27
2023-04-18T08:53:01.547Z,15.30
2023-04-18T08:55:28.309Z,12.93
2023-04-18T08:57:56.153Z,13.43
2023-04-18T09:00:23.874Z,12.02
2023-04-18T09:02:55.234Z,12.95
2023-04-18T09:05:24.990Z,14.57
2023-04-18T09:07:56.271Z,16.95
2023-04-18T09:10:32.881Z,14.32
2023-04-18T09:13:03.432Z,13.23
2023-04-18T09:15:30.894Z,14.50
2023-04-18T09:17:59.652Z,13.55
2023-04-18T09:20:35.328Z,13.82
2023-04-18T09:23:10.770Z,13.15
2023-04-18T09:25:45.293Z,14.57
2023-04-18T09:28:29.889Z,16.40
2023-04-18T09:30:58.697Z,16.73
2023-04-18T09:33:33.579Z,12.07
2023-04-18T09:36:29.197Z,13.95
2023-04-18T09:38:57.234Z,15.02
2023-04-18T09:41:24.428Z,14.20
2023-04-18T09:44:09.720Z,13.57
2023-04-18T09:46:38.343Z,10.88
2023-04-18T09:49:05.122Z,11.70
2023-04-18T09:51:32.014Z,10.00
2023-04-18T09:53:58.929Z,12.77
2023-04-18T09:56:28.391Z,10.63
2023-04-18T09:59:18.126Z,12.13
2023-04-18T10:01:48.677Z,14.38
2023-04-18T10:04:16.934Z,13.75
2023-04-18T10:06:46.045Z,12.00
2023-04-18T10:09:13.924Z,11.63
2023-04-18T10:11:41.156Z,11.40
2023-04-18T10:14:11.228Z,13.77
2023-04-18T10:16:38.933Z,11.25
2023-04-18T10:19:23.840Z,12.23
2023-04-18T10:22:01.147Z,10.45
2023-04-18T10:24:46.063Z,11.35
2023-04-18T10:27:12.879Z,10.32
2023-04-18T10:29:53.316Z,9.95
2023-04-18T10:32:23.163Z,10.82
2023-04-18T10:34:50.635Z,9.95
2023-04-18T10:37:19.075Z,12.05
2023-04-18T10:39:58.910Z,10.07
2023-04-18T10:43:01.111Z,9.85
2023-04-18T10:45:29.847Z,9.02
2023-04-18T10:48:26.083Z,8.23
2023-04-18T10:51:18.658Z,9.85
2023-04-18T10:53:52.460Z,8.45
2023-04-18T10:56:19.302Z,9.32
2023-04-18T10:58:55.367Z,9.27
2023-04-18T11:01:31.178Z,8.23
2023-04-18T11:03:59.998Z,10.40
2023-04-18T11:06:27.930Z,8.02
2023-04-18T11:09:12.347Z,9.27
2023-04-18T11:11:39.069Z,11.88
2023-04-18T11:14:06.008Z,7.88
2023-04-18T11:16:34.211Z,7.05
2023-04-18T11:19:01.191Z,8.05
2023-04-18T11:21:30.708Z,8.15
2023-04-18T11:23:58.453Z,8.38
2023-04-18T11:26:26.591Z,8.80
2023-04-18T11:28:57.385Z,6.32
2023-04-18T11:31:25.020Z,7.47
2023-04-18T11:33:52.319Z,8.43
2023-04-18T11:36:19.041Z,8.68
2023-04-18T11:38:46.268Z,9.05
2023-04-18T11:41:16.555Z,11.65
2023-04-18T11:46:11.696Z,10.70
2023-04-18T11:48:41.793Z,12.15
2023-04-18T11:51:29.706Z,8.60
2023-04-18T11:53:56.438Z,10.02
2023-04-18T11:56:23.121Z,11.30
2023-04-18T11:58:49.957Z,9.95
2023-04-18T12:01:21.100Z,12.30
2023-04-18T12:04:01.943Z,8.68
2023-04-18T12:06:54.652Z,9.18
2023-04-18T12:09:24.581Z,10.73
2023-04-18T12:12:01.756Z,10.70
2023-04-18T12:14:29.026Z,8.32
2023-04-18T12:16:55.883Z,9.68
2023-04-18T12:19:28.380Z,7.85
2023-04-18T12:22:03.333Z,6.57
2023-04-18T12:24:30.108Z,6.13
2023-04-18T12:26:58.196Z,6.05
2023-04-18T12:29:28.752Z,5.50
2023-04-18T12:31:55.773Z,5.53
2023-04-18T12:34:22.543Z,5.82
2023-04-18T12:36:49.468Z,5.55
2023-04-18T12:39:18.920Z,5.97
2023-04-18T12:41:46.359Z,4.97
2023-04-18T12:44:14.428Z,5.00
2023-04-18T12:46:41.235Z,6.18
2023-04-18T12:49:08.450Z,4.95
2023-04-18T12:51:35.173Z,5.15
2023-04-18T12:54:02.019Z,5.35
2023-04-18T12:56:28.793Z,5.88
2023-04-18T12:58:55.558Z,3.97
2023-04-18T13:01:22.342Z,4.88
2023-04-18T13:03:56.724Z,4.40
2023-04-18T13:06:31.031Z,4.63
2023-04-18T13:08:57.716Z,5.13
2023-04-18T13:11:28.653Z,4.35
2023-04-18T13:13:55.880Z,4.32
2023-04-18T13:16:22.795Z,3.83
2023-04-18T13:18:49.533Z,4.55
2023-04-18T13:21:16.760Z,4.05
2023-04-18T13:23:43.477Z,3.75
2023-04-18T13:26:10.263Z,5.50
2023-04-18T13:28:36.993Z,4.03
2023-04-18T13:31:03.814Z,5.32
2023-04-18T13:33:30.479Z,4.15
2023-04-18T13:35:57.570Z,4.80
2023-04-18T13:38:24.393Z,3.97
2023-04-18T13:41:00.994Z,3.45
2023-04-18T13:43:35.613Z,4.07
2023-04-18T13:46:02.384Z,5.45
2023-04-18T13:48:29.086Z,4.28
2023-04-18T13:50:55.871Z,5.95
2023-04-18T13:53:22.610Z,5.30
2023-04-18T13:55:49.659Z,5.05
2023-04-18T13:58:16.738Z,6.38
2023-04-18T14:00:43.640Z,7.32
2023-04-18T14:03:11.042Z,6.70
2023-04-18T14:05:37.896Z,6.78
2023-04-18T14:08:04.993Z,3.83
2023-04-18T14:10:31.730Z,5.82
2023-04-18T14:12:58.423Z,4.43
2023-04-18T14:15:25.954Z,5.28
2023-04-18T14:17:52.773Z,4.55
2023-04-18T14:20:19.523Z,4.72
2023-04-18T14:22:47.028Z,4.50
2023-04-18T14:25:15.025Z,5.10
2023-04-18T14:27:42.021Z,5.07
2023-04-18T14:30:10.188Z,4.10
2023-04-18T14:32:36.918Z,5.15
2023-04-18T14:35:06.081Z,5.47
2023-04-18T14:37:33.512Z,4.28
2023-04-18T14:40:00.321Z,4.85
2023-04-18T14:42:30.238Z,4.57
2023-04-18T14:44:56.934Z,6.93
2023-04-18T14:47:24.332Z,3.50
2023-04-18T14:49:52.824Z,5.47
2023-04-18T14:52:20.296Z,5.03
2023-04-18T14:54:46.996Z,4.35
2023-04-18T14:57:13.771Z,2.85
2023-04-18T14:59:40.495Z,4.50
2023-04-18T15:02:08.045Z,5.28
2023-04-18T15:04:39.332Z,5.40
2023-04-18T15:07:07.784Z,6.18
2023-04-18T15:09:38.244Z,5.28
2023-04-18T15:12:06.235Z,5.65
2023-04-18T15:14:33.897Z,6.47
2023-04-18T15:17:01.135Z,5.40
2023-04-18T15:19:28.151Z,4.93
2023-04-18T15:21:54.868Z,6.63
2023-04-18T15:24:21.598Z,5.82
2023-04-18T15:26:48.338Z,6.57
2023-04-18T15:29:15.085Z,5.45
2023-04-18T15:31:41.831Z,5.47
2023-04-18T15:34:08.519Z,6.28
2023-04-18T15:36:36.192Z,5.72
2023-04-18T15:39:06.110Z,6.32
2023-04-18T15:41:37.041Z,6.47
2023-04-18T15:44:05.556Z,5.18
2023-04-18T15:46:34.891Z,6.55
2023-04-18T15:49:01.865Z,5.80
2023-04-18T15:51:28.703Z,7.05
2023-04-18T15:53:55.381Z,5.30
2023-04-18T15:56:23.477Z,5.60
2023-04-18T15:58:50.860Z,5.95
2023-04-18T16:01:17.651Z,5.88
2023-04-18T16:03:44.643Z,5.50
2023-04-18T16:06:12.065Z,5.95
2023-04-18T16:08:38.755Z,4.95
2023-04-18T16:11:05.880Z,6.45
2023-04-18T16:13:32.694Z,6.82
2023-04-18T16:15:59.491Z,8.13
2023-04-18T16:18:26.166Z,6.65
2023-04-18T16:20:52.841Z,9.75
2023-04-18T16:23:20.707Z,6.22
2023-04-18T16:25:47.519Z,5.90
2023-04-18T16:28:14.259Z,5.95
2023-04-18T16:30:43.995Z,6.00
2023-04-18T16:33:10.908Z,8.65
2023-04-18T16:35:37.739Z,6.05
2023-04-18T16:38:04.460Z,6.53
2023-04-18T16:40:32.126Z,5.82
2023-04-18T16:42:58.960Z,6.35
2023-04-18T16:45:25.766Z,7.38
2023-04-18T16:47:52.585Z,6.32
2023-04-18T16:50:19.713Z,6.93
2023-04-18T16:52:46.490Z,6.28
2023-04-18T16:55:13.184Z,5.97
2023-04-18T16:57:39.866Z,6.20
2023-04-18T17:00:07.321Z,8.65
2023-04-18T17:02:34.321Z,8.32
2023-04-18T17:05:01.524Z,5.85
2023-04-18T17:07:28.415Z,7.45
2023-04-18T17:09:55.167Z,6.03
2023-04-18T17:12:21.876Z,7.50
2023-04-18T17:14:48.567Z,7.10
2023-04-18T17:17:15.874Z,7.55
2023-04-18T17:19:42.602Z,6.93
2023-04-18T17:22:09.318Z,13.00
2023-04-18T17:24:36.180Z,7.60
2023-04-18T17:27:02.924Z,8.23
2023-04-18T17:29:29.626Z,5.85
2023-04-18T17:31:56.539Z,5.47
2023-04-18T17:34:23.267Z,5.97
2023-04-18T17:36:50.305Z,6.35
2023-04-18T17:39:17.748Z,5.45
2023-04-18T17:41:45.037Z,6.68
2023-04-18T17:44:11.807Z,12.20
2023-04-18T17:46:38.621Z,11.30
2023-04-18T17:49:05.442Z,9.93
2023-04-18T17:51:32.365Z,13.55
2023-04-18T17:53:59.062Z,10.85
2023-04-18T17:56:25.834Z,7.35
2023-04-18T17:58:54.659Z,9.00
2023-04-18T18:01:22.844Z,8.85
2023-04-18T18:03:49.999Z,7.63
2023-04-18T18:06:16.941Z,8.48
2023-04-18T18:08:43.907Z,9.15
2023-04-18T18:11:10.929Z,8.73
2023-04-18T18:13:39.136Z,8.95
2023-04-18T18:16:06.930Z,9.70
2023-04-18T18:18:34.420Z,10.75
2023-04-18T18:21:01.091Z,9.18
2023-04-18T18:23:27.838Z,9.45
2023-04-18T18:25:54.571Z,9.65
2023-04-18T18:28:21.621Z,12.68
2023-04-18T18:30:48.424Z,10.73
2023-04-18T18:33:15.329Z,9.98
2023-04-18T18:35:42.246Z,9.25
2023-04-18T18:38:09.124Z,9.40
2023-04-18T18:40:35.805Z,8.70
2023-04-18T18:43:02.504Z,9.48
2023-04-18T18:45:29.377Z,8.82
2023-04-18T18:47:56.110Z,8.07
2023-04-18T18:50:23.428Z,9.60
2023-04-18T18:52:50.125Z,8.13
2023-04-18T18:55:16.933Z,9.40
2023-04-18T18:57:43.701Z,9.90
2023-04-18T19:00:11.296Z,10.77
2023-04-18T19:02:39.154Z,8.65
2023-04-18T19:05:06.924Z,9.65
2023-04-18T19:07:33.776Z,8.55
2023-04-18T19:10:01.850Z,9.63
2023-04-18T19:12:29.401Z,9.07
2023-04-18T19:14:56.232Z,11.10
2023-04-18T19:17:24.955Z,8.52
2023-04-18T19:19:53.051Z,9.38
2023-04-18T19:22:19.786Z,8.65
2023-04-18T19:24:47.134Z,7.05
2023-04-18T19:27:13.854Z,10.80
2023-04-18T19:29:40.798Z,9.98
2023-04-18T19:32:07.668Z,11.48
2023-04-18T19:34:34.402Z,9.50
2023-04-18T19:37:01.545Z,11.02
2023-04-18T19:39:28.552Z,7.95
2023-04-18T19:41:55.383Z,10.65
2023-04-18T19:44:22.185Z,8.60
2023-04-18T19:46:48.896Z,10.07
2023-04-18T19:49:15.932Z,9.30
2023-04-18T19:51:42.848Z,11.07
2023-04-18T19:54:09.669Z,10.63
2023-04-18T19:56:36.450Z,10.00
2023-04-18T19:59:06.118Z,10.63
2023-04-18T20:01:32.896Z,9.63
2023-04-18T20:04:00.802Z,11.50
2023-04-18T20:06:28.011Z,9.73
2023-04-18T20:08:54.793Z,11.82
2023-04-18T20:11:22.367Z,10.52
2023-04-18T20:13:49.508Z,11.00
2023-04-18T20:16:17.059Z,16.02
2023-04-18T20:18:44.493Z,11.70
2023-04-18T20:21:11.357Z,11.15
2023-04-18T20:23:38.227Z,11.98
2023-04-18T20:26:04.923Z,9.88
2023-04-18T20:28:32.012Z,14.05
2023-04-18T20:30:58.736Z,13.75
2023-04-18T20:33:25.565Z,11.07
2023-04-18T20:35:53.850Z,12.68
2023-04-18T20:38:25.813Z,11.48
2023-04-18T20:40:54.393Z,13.25
2023-04-18T20:43:21.585Z,13.93
2023-04-18T20:45:51.156Z,12.82
2023-04-18T20:48:18.442Z,12.52
2023-04-18T20:50:51.209Z,11.50
2023-04-18T20:53:22.572Z,10.68
2023-04-18T20:55:49.486Z,10.18
2023-04-18T20:58:16.337Z,10.68
2023-04-18T21:00:44.673Z,10.90
2023-04-18T21:03:15.041Z,12.02
2023-04-18T21:05:43.208Z,11.38
2023-04-18T21:08:11.058Z,11.20
2023-04-18T21:10:37.764Z,11.65
2023-04-18T21:13:04.455Z,10.55
2023-04-18T21:15:31.153Z,10.70
2023-04-18T21:17:57.972Z,11.40
2023-04-18T21:20:24.831Z,9.75
2023-04-18T21:22:52.150Z,9.77
2023-04-18T21:25:21.376Z,10.35
2023-04-18T21:27:48.224Z,12.90
2023-04-18T21:30:15.091Z,9.70
2023-04-18T21:32:41.807Z,12.38
2023-04-18T21:35:09.030Z,10.88
2023-04-18T21:37:35.787Z,11.52
2023-04-18T21:40:02.505Z,10.70
2023-04-18T21:42:29.201Z,12.38
2023-04-18T21:44:56.038Z,10.85
2023-04-18T21:47:23.034Z,14.00
2023-04-18T21:49:49.787Z,12.63
2023-04-18T21:52:16.549Z,10.93
2023-04-18T21:54:43.346Z,11.23
2023-04-18T21:57:10.069Z,13.95
2023-04-18T21:59:36.774Z,12.07
2023-04-18T22:02:03.586Z,11.07
2023-04-18T22:04:30.434Z,13.82
2023-04-18T22:06:57.607Z,14.35
2023-04-18T22:09:24.296Z,11.95
2023-04-18T22:11:51.989Z,15.35
2023-04-18T22:14:20.141Z,11.70
2023-04-18T22:16:46.833Z,15.13
2023-04-18T22:19:14.242Z,11.88
2023-04-18T22:21:40.961Z,13.57
2023-04-18T22:24:08.575Z,12.43
2023-04-18T22:26:35.278Z,11.45
2023-04-18T22:29:01.976Z,14.02
2023-04-18T22:31:28.960Z,14.77
2023-04-18T22:33:56.103Z,14.60
2023-04-18T22:36:22.851Z,11.35
2023-04-18T22:38:49.598Z,11.93
2023-04-18T22:41:16.294Z,13.18
2023-04-18T22:43:43.108Z,14.40
2023-04-18T22:46:09.805Z,14.30
2023-04-18T22:48:36.591Z,12.65
2023-04-18T22:51:03.671Z,13.85
2023-04-18T22:53:30.454Z,14.48
2023-04-18T22:55:57.236Z,14.50
2023-04-18T22:58:23.902Z,13.43
2023-04-18T23:00:50.971Z,16.55
2023-04-18T23:03:18.231Z,11.43
2023-04-18T23:05:45.092Z,13.20
2023-04-18T23:08:12.176Z,12.95
2023-04-18T23:10:39.237Z,12.80
2023-04-18T23:13:06.026Z,12.65
2023-04-18T23:15:32.826Z,13.18
2023-04-18T23:17:59.673Z,13.10
2023-04-18T23:20:26.460Z,15.27
2023-04-18T23:22:53.825Z,13.73
2023-04-18T23:25:20.596Z,14.60
2023-04-18T23:27:48.136Z,12.18
2023-04-18T23:30:14.952Z,14.10
2023-04-18T23:32:41.718Z,13.68
2023-04-18T23:35:08.892Z,14.13
2023-04-18T23:37:35.628Z,13.63
2023-04-18T23:40:04.019Z,14.07
2023-04-18T23:42:30.724Z,15.55
2023-04-18T23:44:59.090Z,13.82
2023-04-18T23:47:25.950Z,14.10
2023-04-18T23:49:52.629Z,15.27
2023-04-18T23:52:19.353Z,15.63
2023-04-18T23:54:46.045Z,14.77
2023-04-18T23:57:12.704Z,15.18
2023-04-18T23:59:39.354Z,14.25
